< < Back
Terminal Aerodrome Forecast


Current Version              Previous Versions:   1  2  3  4  5  6  7  8  9  

Terminal Aerodrome Forecast

488
FTUS44 KMOB 281745
TAFPNS
TAF
KPNS 281745Z 2818/2918 35008KT P6SM SCT100
     FM290000 01004KT P6SM SCT100
     FM290900 04005KT P6SM SCT035 SCT100=



Latest METAR

279
SAUS70 KWBC 290900 RRH
MTRPNS
METAR KPNS 290853Z AUTO 04006KT 10SM CLR 08/M01 A3029 RMK AO2 SLP258
T00781011 57004


USA.gov is the U.S. government's official web portal to all federal, state and local government web resources and services.